createdAt,value
2023-04-21T00:04:52.724Z,8.70
2023-04-21T00:10:18.650Z,8.50
2023-04-21T00:15:49.045Z,8.43
2023-04-21T00:21:11.850Z,8.43
2023-04-21T00:27:44.074Z,8.40
2023-04-21T00:34:13.851Z,8.37
2023-04-21T00:40:52.339Z,8.25
2023-04-21T00:47:57.252Z,8.08
2023-04-21T00:54:59.887Z,7.97
2023-04-21T01:01:59.247Z,8.00
2023-04-21T01:08:38.543Z,7.93
2023-04-21T01:15:41.747Z,7.73
2023-04-21T01:21:28.449Z,7.55
2023-04-21T01:27:12.223Z,7.44
2023-04-21T01:33:57.747Z,7.48
2023-04-21T01:40:51.916Z,7.43
2023-04-21T01:47:29.378Z,7.23
2023-04-21T01:53:28.436Z,7.11
2023-04-21T01:59:39.482Z,7.02
2023-04-21T02:06:17.292Z,6.85
2023-04-21T02:11:41.177Z,6.76
2023-04-21T02:17:07.284Z,6.69
2023-04-21T02:22:53.713Z,6.66
2023-04-21T02:28:34.959Z,6.66
2023-04-21T02:34:15.987Z,6.72
2023-04-21T02:39:45.346Z,6.78
2023-04-21T02:45:07.543Z,6.72
2023-04-21T02:51:35.211Z,6.67
2023-04-21T02:58:44.832Z,6.68
2023-04-21T03:04:58.496Z,6.72
2023-04-21T03:11:27.481Z,6.70
2023-04-21T03:18:33.002Z,6.60
2023-04-21T03:24:43.352Z,6.46
2023-04-21T03:30:27.262Z,6.33
2023-04-21T03:36:27.181Z,6.25
2023-04-21T03:41:58.628Z,6.16
2023-04-21T03:47:52.294Z,6.07
2023-04-21T03:54:34.426Z,5.94
2023-04-21T04:00:43.540Z,5.82
2023-04-21T04:06:27.800Z,5.83
2023-04-21T04:12:50.590Z,5.90
2023-04-21T04:19:44.539Z,6.05
2023-04-21T04:25:51.886Z,6.10
2023-04-21T04:31:22.312Z,6.20
2023-04-21T04:38:40.885Z,6.40
2023-04-21T04:45:43.737Z,6.72
2023-04-21T04:51:37.529Z,7.10
2023-04-21T04:57:42.089Z,7.52
2023-04-21T05:03:11.189Z,7.98
2023-04-21T05:08:43.046Z,8.63
2023-04-21T05:14:50.819Z,9.46
2023-04-21T05:20:39.028Z,10.35
2023-04-21T05:26:31.116Z,11.16
2023-04-21T05:33:00.437Z,12.17
2023-04-21T05:39:26.413Z,12.94
2023-04-21T05:46:33.133Z,13.59
2023-04-21T05:53:08.487Z,14.17
2023-04-21T05:59:36.319Z,15.01
2023-04-21T06:06:07.037Z,15.61
2023-04-21T06:11:57.231Z,16.93
2023-04-21T06:17:37.186Z,17.94
2023-04-21T06:23:51.930Z,19.04
2023-04-21T06:29:37.667Z,19.96
2023-04-21T06:35:10.358Z,20.93
2023-04-21T06:41:08.660Z,21.48
2023-04-21T06:47:30.345Z,22.44
2023-04-21T06:52:54.108Z,23.09
2023-04-21T06:58:21.328Z,23.84
2023-04-21T07:03:28.540Z,24.50
2023-04-21T07:09:33.408Z,25.06
2023-04-21T07:15:02.535Z,25.52
2023-04-21T07:20:35.005Z,25.87
2023-04-21T07:26:23.042Z,26.55
2023-04-21T07:32:19.890Z,27.16
2023-04-21T07:37:56.852Z,27.48
2023-04-21T07:44:09.332Z,27.14
2023-04-21T07:49:36.550Z,25.69
2023-04-21T07:55:05.189Z,26.48
2023-04-21T08:00:13.398Z,27.18
2023-04-21T08:05:40.116Z,27.41
2023-04-21T08:11:16.278Z,28.08
2023-04-21T08:16:43.934Z,28.35
2023-04-21T08:21:56.988Z,28.37
2023-04-21T08:27:46.569Z,28.74
2023-04-21T08:33:14.772Z,29.01
2023-04-21T08:39:01.531Z,29.40
2023-04-21T08:44:47.557Z,29.60
2023-04-21T08:51:14.467Z,29.71
2023-04-21T08:57:07.958Z,29.44
2023-04-21T09:02:25.089Z,28.94
2023-04-21T09:08:11.027Z,28.59
2023-04-21T09:14:33.394Z,26.90
2023-04-21T09:19:35.758Z,26.22
2023-04-21T09:24:49.438Z,25.75
2023-04-21T09:30:12.300Z,25.88
2023-04-21T09:35:20.049Z,26.21
2023-04-21T09:40:49.629Z,25.78
2023-04-21T09:46:15.516Z,25.24
2023-04-21T09:51:42.803Z,24.96
2023-04-21T09:58:11.834Z,25.44
2023-04-21T10:03:23.312Z,25.79
2023-04-21T10:09:10.611Z,26.61
2023-04-21T10:14:33.321Z,26.31
2023-04-21T10:19:57.415Z,26.48
2023-04-21T10:25:12.611Z,27.78
2023-04-21T10:30:18.642Z,28.86
2023-04-21T10:36:00.478Z,29.25
2023-04-21T10:41:43.827Z,29.97
2023-04-21T10:47:44.879Z,30.39
2023-04-21T10:53:27.583Z,30.12
2023-04-21T10:59:01.276Z,29.41
2023-04-21T11:04:36.186Z,28.57
2023-04-21T11:10:46.416Z,28.67
2023-04-21T11:16:16.740Z,29.60
2023-04-21T11:22:00.990Z,29.94
2023-04-21T11:27:32.004Z,29.96
2023-04-21T11:32:40.712Z,29.49
2023-04-21T11:37:49.325Z,29.19
2023-04-21T11:43:09.877Z,28.24
2023-04-21T11:49:08.194Z,26.75
2023-04-21T11:54:21.500Z,26.99
2023-04-21T11:59:30.636Z,27.66
2023-04-21T12:05:00.884Z,28.85
2023-04-21T12:10:18.525Z,29.33
2023-04-21T12:15:28.499Z,29.96
2023-04-21T12:20:31.092Z,30.76
2023-04-21T12:25:56.449Z,31.41
2023-04-21T12:30:58.447Z,31.91
2023-04-21T12:36:01.154Z,31.74
2023-04-21T12:41:05.442Z,32.23
2023-04-21T12:46:07.245Z,32.78
2023-04-21T12:51:11.510Z,33.22
2023-04-21T12:56:51.738Z,32.24
2023-04-21T13:02:19.131Z,30.67
2023-04-21T13:07:45.230Z,30.52
2023-04-21T13:12:47.637Z,31.02
2023-04-21T13:18:16.966Z,31.60
2023-04-21T13:23:48.822Z,31.75
2023-04-21T13:29:17.721Z,31.97
2023-04-21T13:34:42.225Z,31.98
2023-04-21T13:39:47.559Z,30.46
2023-04-21T13:44:57.235Z,28.92
2023-04-21T13:50:13.820Z,27.64
2023-04-21T13:56:00.435Z,26.78
2023-04-21T14:01:03.713Z,27.62
2023-04-21T14:06:16.886Z,27.91
2023-04-21T14:11:41.567Z,28.52
2023-04-21T14:17:04.176Z,28.99
2023-04-21T14:23:01.827Z,29.60
2023-04-21T14:28:50.446Z,29.82
2023-04-21T14:33:54.340Z,29.53
2023-04-21T14:39:09.937Z,29.35
2023-04-21T14:44:56.288Z,28.85
2023-04-21T14:50:01.476Z,28.95
2023-04-21T14:55:08.589Z,29.00
2023-04-21T15:00:31.232Z,28.62
2023-04-21T15:05:36.184Z,27.63
2023-04-21T15:10:42.298Z,26.25
2023-04-21T15:15:47.924Z,25.40
2023-04-21T15:21:54.157Z,24.88
2023-04-21T15:27:22.999Z,25.00
2023-04-21T15:32:25.884Z,25.22
2023-04-21T15:37:29.380Z,25.31
2023-04-21T15:42:50.924Z,25.44
2023-04-21T15:48:56.767Z,25.49
2023-04-21T15:54:48.156Z,25.01
2023-04-21T16:00:15.308Z,24.13
2023-04-21T16:06:37.562Z,22.95
2023-04-21T16:12:25.635Z,22.14
2023-04-21T16:19:38.518Z,21.53
2023-04-21T16:26:27.795Z,21.02
2023-04-21T16:33:02.498Z,20.64
2023-04-21T16:38:40.954Z,20.25
2023-04-21T16:45:04.017Z,19.84
2023-04-21T16:51:29.704Z,19.51
2023-04-21T16:57:10.324Z,19.21
2023-04-21T17:03:37.996Z,18.95
2023-04-21T17:09:35.541Z,18.62
2023-04-21T17:15:25.484Z,18.34
2023-04-21T17:21:10.146Z,18.06
2023-04-21T17:26:52.733Z,17.79
2023-04-21T17:32:44.192Z,17.49
2023-04-21T17:38:39.589Z,17.20
2023-04-21T17:45:07.919Z,16.79
2023-04-21T17:51:29.624Z,16.47
2023-04-21T17:57:23.015Z,16.14
2023-04-21T18:02:56.264Z,15.88
2023-04-21T18:13:11.481Z,15.47
2023-04-21T18:19:21.590Z,15.08
2023-04-21T18:25:27.283Z,14.84
2023-04-21T18:32:04.403Z,14.61
2023-04-21T18:38:16.796Z,14.39
2023-04-21T18:44:59.585Z,14.20
2023-04-21T18:51:31.231Z,13.98
2023-04-21T18:58:43.916Z,13.78
2023-04-21T19:04:50.146Z,13.59
2023-04-21T19:11:25.771Z,13.41
2023-04-21T19:18:26.166Z,13.22
2023-04-21T19:24:58.273Z,12.98
2023-04-21T19:31:03.877Z,12.80
2023-04-21T19:36:41.637Z,12.67
2023-04-21T19:42:59.431Z,12.55
2023-04-21T19:48:55.275Z,12.42
2023-04-21T19:55:32.908Z,12.30
2023-04-21T20:02:04.534Z,12.13
2023-04-21T20:08:55.548Z,11.98
2023-04-21T20:14:42.417Z,11.83
2023-04-21T20:20:18.272Z,11.70
2023-04-21T20:26:23.075Z,11.59
2023-04-21T20:31:57.294Z,11.47
2023-04-21T20:37:51.618Z,11.38
2023-04-21T20:44:08.173Z,11.26
2023-04-21T20:50:12.809Z,11.16
2023-04-21T20:57:25.700Z,11.06
2023-04-21T21:04:05.375Z,10.96
2023-04-21T21:10:46.188Z,10.88
2023-04-21T21:17:36.175Z,10.82
2023-04-21T21:24:31.232Z,10.73
2023-04-21T21:30:43.386Z,10.64
2023-04-21T21:37:09.705Z,10.57
2023-04-21T21:43:44.637Z,10.46
2023-04-21T21:49:59.290Z,10.35
2023-04-21T21:56:42.073Z,10.24
2023-04-21T22:03:36.452Z,10.10
2023-04-21T22:10:08.720Z,9.98
2023-04-21T22:16:13.723Z,9.87
2023-04-21T22:22:43.792Z,9.71
2023-04-21T22:29:43.440Z,9.58
2023-04-21T22:35:57.161Z,9.41
2023-04-21T22:42:22.535Z,9.21
2023-04-21T22:49:13.013Z,8.96
2023-04-21T22:55:25.729Z,8.83
2023-04-21T23:01:40.554Z,8.72
2023-04-21T23:08:11.206Z,8.62
2023-04-21T23:15:04.279Z,8.55
2023-04-21T23:21:38.744Z,8.50
2023-04-21T23:28:31.696Z,8.44
2023-04-21T23:35:23.754Z,8.41
2023-04-21T23:42:07.217Z,8.33
2023-04-21T23:49:12.984Z,8.20
2023-04-21T23:55:35.117Z,8.04
